Time;durP1;ratioP1;P1;durP2;ratioP2;P2;SDS_P1;SDS_P2;PMS_P1;PMS_P2;Temp;Humidity;BMP_temperature;BMP_pressure;BME280_temperature;BME280_humidity;BME280_pressure;Samples;Min_cycle;Max_cycle;Signal;HPM_P1;HPM_P2
2021/12/29 00:02:35;;;;;;;;;;;;;;;;;;4224166;28;2217;-56
2021/12/29 00:04:56;;;;;;;;;;;;;;;;;;4224037;28;1172;-55
2021/12/29 00:07:16;;;;;;;;;;;;;;;;;;4223662;28;937;-56
2021/12/29 00:09:37;;;;;;;;;;;;;;;;;;4223580;28;965;-56
2021/12/29 00:11:58;;;;;;;;;;;;;;;;;;4223668;28;1066;-56
2021/12/29 00:14:18;;;;;;;;;;;;;;;;;;4223580;28;996;-56
2021/12/29 00:16:38;;;;;;;;;;;;;;;;;;4223677;28;1978;-56
2021/12/29 00:18:58;;;;;;;;;;;;;;;;;;4223563;28;997;-56
2021/12/29 00:21:18;;;;;;;;;;;;;;;;;;4223737;28;926;-55
2021/12/29 00:23:38;;;;;;;;;;;;;;;;;;4223415;28;1050;-56
2021/12/29 00:25:58;;;;;;;;;;;;;;;;;;4223307;28;1175;-56
2021/12/29 00:28:18;;;;;;;;;;;;;;;;;;4223351;28;1310;-56
2021/12/29 00:30:39;;;;;;;;;;;;;;;;;;4223934;28;1041;-56
2021/12/29 00:33:19;;;;;;;;;;;;;;;;;;4223323;28;1096;-56
2021/12/29 00:35:58;;;;;;;;;;;;;;;;;;4223494;28;1906;-55
2021/12/29 00:38:23;;;;;;;;;;;;;;;;;;4223619;28;1111;-56
2021/12/29 00:40:56;;;;;;;;;;;;;;;;;;4223242;28;966;-55
2021/12/29 00:43:35;;;;;;;;;;;;;;;;;;4223260;28;1125;-56
2021/12/29 00:46:01;;;;;;;;;;;;;;;;;;4223350;28;949;-56
2021/12/29 00:48:24;;;;;;;;;;;;;;;;;;4223247;28;1006;-55
2021/12/29 00:50:44;;;;;;;;;;;;;;;;;;4223419;28;1071;-56
2021/12/29 00:53:04;;;;;;;;;;;;;;;;;;4223224;28;1061;-56
2021/12/29 00:55:24;;;;;;;;;;;;;;;;;;4223204;28;1977;-56
2021/12/29 00:57:45;;;;;;;;;;;;;;;;;;4223192;28;1004;-55
2021/12/29 01:00:05;;;;;;;;;;;;;;;;;;4223206;28;1080;-56
2021/12/29 01:02:25;;;;;;;;;;;;;;;;;;4223217;28;1080;-55
2021/12/29 01:04:45;;;;;;;;;;;;;;;;;;4223103;28;955;-55
2021/12/29 01:07:06;;;;;;;;;;;;;;;;;;4223269;28;1260;-55
2021/12/29 01:09:26;;;;;;;;;;;;;;;;;;4222933;28;1083;-55
2021/12/29 01:11:46;;;;;;;;;;;;;;;;;;4222909;28;1202;-55
2021/12/29 01:14:07;;;;;;;;;;;;;;;;;;4222803;28;974;-56
2021/12/29 01:16:40;;;;;;;;;;;;;;;;;;4222956;28;1988;-56
2021/12/29 01:19:00;;;;;;;;;;;;;;;;;;4222771;28;1089;-56
2021/12/29 01:21:21;;;;;;;;;;;;;;;;;;4222992;28;1046;-55
2021/12/29 01:23:41;;;;;;;;;;;;;;;;;;4222863;28;1150;-56
2021/12/29 01:26:01;;;;;;;;;;;;;;;;;;4222683;28;1372;-56
2021/12/29 01:28:21;;;;;;;;;;;;;;;;;;4222591;28;968;-55
2021/12/29 01:30:42;;;;;;;;;;;;;;;;;;4222677;28;1079;-56
2021/12/29 01:33:06;;;;;;;;;;;;;;;;;;4222839;28;1278;-55
2021/12/29 01:35:26;;;;;;;;;;;;;;;;;;4223046;28;1264;-55
2021/12/29 01:37:46;;;;;;;;;;;;;;;;;;4222741;28;1064;-56
2021/12/29 01:40:07;;;;;;;;;;;;;;;;;;4222198;28;1143;-56
2021/12/29 01:42:27;;;;;;;;;;;;;;;;;;4222655;28;1285;-55
2021/12/29 01:44:47;;;;;;;;;;;;;;;;;;4222785;28;1167;-55
2021/12/29 01:47:07;;;;;;;;;;;;;;;;;;4222471;28;1075;-55
2021/12/29 01:49:28;;;;;;;;;;;;;;;;;;4222630;28;1010;-55
2021/12/29 01:51:59;;;;;;;;;;;;;;;;;;4222467;28;1220;-55
2021/12/29 01:54:24;;;;;;;;;;;;;;;;;;4222291;28;991;-56
2021/12/29 01:56:44;;;;;;;;;;;;;;;;;;4222190;28;1906;-55
2021/12/29 01:59:05;;;;;;;;;;;;;;;;;;4221884;28;1130;-55
2021/12/29 02:01:43;;;;;;;;;;;;;;;;;;4222149;28;1122;-55
2021/12/29 02:04:04;;;;;;;;;;;;;;;;;;4221891;28;1156;-56
2021/12/29 02:06:24;;;;;;;;;;;;;;;;;;4221420;28;1016;-56
2021/12/29 02:08:44;;;;;;;;;;;;;;;;;;4222008;28;1024;-56
2021/12/29 02:11:07;;;;;;;;;;;;;;;;;;4221814;28;1083;-56
2021/12/29 02:13:28;;;;;;;;;;;;;;;;;;4221599;28;953;-56
2021/12/29 02:15:49;;;;;;;;;;;;;;;;;;4221473;28;1385;-57
2021/12/29 02:18:13;;;;;;;;;;;;;;;;;;4221652;28;1058;-55
2021/12/29 02:20:33;;;;;;;;;;;;;;;;;;4221272;28;1172;-56
2021/12/29 02:23:11;;;;;;;;;;;;;;;;;;4221412;28;1243;-55
2021/12/29 02:25:46;;;;;;;;;;;;;;;;;;4221348;28;1271;-55
2021/12/29 02:28:07;;;;;;;;;;;;;;;;;;4221406;28;1020;-56
2021/12/29 02:30:27;;;;;;;;;;;;;;;;;;4221586;28;1174;-56
2021/12/29 02:32:49;;;;;;;;;;;;;;;;;;4221638;28;993;-56
2021/12/29 02:35:10;;;;;;;;;;;;;;;;;;4221223;28;1154;-56
2021/12/29 02:37:30;;;;;;;;;;;;;;;;;;4221431;28;1905;-56
2021/12/29 02:39:51;;;;;;;;;;;;;;;;;;4221202;28;1228;-55
2021/12/29 02:42:12;;;;;;;;;;;;;;;;;;4221249;28;1227;-56
2021/12/29 02:44:40;;;;;;;;;;;;;;;;;;4221229;28;1038;-55
2021/12/29 02:47:00;;;;;;;;;;;;;;;;;;4221368;28;992;-56
2021/12/29 02:49:21;;;;;;;;;;;;;;;;;;4221296;28;1478;-57
2021/12/29 02:51:41;;;;;;;;;;;;;;;;;;4220464;28;1149;-56
2021/12/29 02:54:01;;;;;;;;;;;;;;;;;;4221096;28;1094;-56
2021/12/29 02:56:21;;;;;;;;;;;;;;;;;;4221384;28;1984;-57
2021/12/29 02:58:41;;;;;;;;;;;;;;;;;;4221355;28;1038;-55
2021/12/29 03:01:02;;;;;;;;;;;;;;;;;;4221683;28;1066;-55
2021/12/29 03:03:22;;;;;;;;;;;;;;;;;;4221512;28;1019;-56
2021/12/29 03:05:42;;;;;;;;;;;;;;;;;;4221175;28;1090;-56
2021/12/29 03:08:03;;;;;;;;;;;;;;;;;;4221306;28;1148;-55
2021/12/29 03:10:23;;;;;;;;;;;;;;;;;;4221408;28;1037;-56
2021/12/29 03:12:44;;;;;;;;;;;;;;;;;;4221165;28;1163;-56
2021/12/29 03:15:04;;;;;;;;;;;;;;;;;;4221485;28;1151;-56
2021/12/29 03:17:25;;;;;;;;;;;;;;;;;;4221077;28;1984;-56
2021/12/29 03:19:46;;;;;;;;;;;;;;;;;;4221247;28;1147;-56
2021/12/29 03:22:06;;;;;;;;;;;;;;;;;;4221213;28;1122;-55
2021/12/29 03:24:27;;;;;;;;;;;;;;;;;;4221209;28;1091;-55
2021/12/29 03:26:47;;;;;;;;;;;;;;;;;;4221390;28;1136;-56
2021/12/29 03:29:07;;;;;;;;;;;;;;;;;;4221169;28;1051;-55
2021/12/29 03:31:30;;;;;;;;;;;;;;;;;;4221348;28;1108;-55
2021/12/29 03:33:50;;;;;;;;;;;;;;;;;;4221077;28;1213;-56
2021/12/29 03:36:11;;;;;;;;;;;;;;;;;;4220908;28;1066;-56
2021/12/29 03:38:31;;;;;;;;;;;;;;;;;;4221212;28;1082;-56
2021/12/29 03:40:51;;;;;;;;;;;;;;;;;;4221231;28;1600;-56
2021/12/29 03:43:11;;;;;;;;;;;;;;;;;;4221080;28;1025;-56
2021/12/29 03:45:32;;;;;;;;;;;;;;;;;;4221157;28;947;-55
2021/12/29 03:47:52;;;;;;;;;;;;;;;;;;4221064;28;1151;-56
2021/12/29 03:50:12;;;;;;;;;;;;;;;;;;4220990;28;1140;-56
2021/12/29 03:52:33;;;;;;;;;;;;;;;;;;4221119;28;1113;-55
2021/12/29 03:54:53;;;;;;;;;;;;;;;;;;4221134;28;973;-56
2021/12/29 03:57:13;;;;;;;;;;;;;;;;;;4220969;28;1914;-56
2021/12/29 03:59:33;;;;;;;;;;;;;;;;;;4220902;28;1202;-55
2021/12/29 04:01:54;;;;;;;;;;;;;;;;;;4221663;28;1029;-55
2021/12/29 04:04:14;;;;;;;;;;;;;;;;;;4223968;28;1671;-56
2021/12/29 04:06:35;;;;;;;;;;;;;;;;;;4223299;28;1448;-56
2021/12/29 04:08:55;;;;;;;;;;;;;;;;;;4223885;28;1032;-55
2021/12/29 04:11:15;;;;;;;;;;;;;;;;;;4223694;28;930;-56
2021/12/29 04:13:36;;;;;;;;;;;;;;;;;;4223650;28;949;-56
2021/12/29 04:15:56;;;;;;;;;;;;;;;;;;4223508;28;1065;-55
2021/12/29 04:18:26;;;;;;;;;;;;;;;;;;4223479;28;1974;-55
2021/12/29 04:20:55;;;;;;;;;;;;;;;;;;4223662;28;977;-56
2021/12/29 04:23:15;;;;;;;;;;;;;;;;;;4223679;28;1205;-56
2021/12/29 04:25:36;;;;;;;;;;;;;;;;;;4223437;28;1023;-55
2021/12/29 04:27:57;;;;;;;;;;;;;;;;;;4223547;28;1373;-56
2021/12/29 04:30:18;;;;;;;;;;;;;;;;;;4223593;28;1093;-56
2021/12/29 04:32:38;;;;;;;;;;;;;;;;;;4223918;28;1211;-55
2021/12/29 04:34:58;;;;;;;;;;;;;;;;;;4223428;28;1087;-55
2021/12/29 04:37:18;;;;;;;;;;;;;;;;;;4223246;28;1979;-56
2021/12/29 04:39:39;;;;;;;;;;;;;;;;;;4223224;28;1004;-55
2021/12/29 04:41:59;;;;;;;;;;;;;;;;;;4223419;28;1421;-56
2021/12/29 04:44:20;;;;;;;;;;;;;;;;;;4223459;28;1003;-56
2021/12/29 04:46:44;;;;;;;;;;;;;;;;;;4220757;28;2305;-55
2021/12/29 04:49:05;;;;;;;;;;;;;;;;;;4206710;28;1168;-57
2021/12/29 04:51:33;;;;;;;;;;;;;;;;;;4206432;28;1045;-55
2021/12/29 04:53:53;;;;;;;;;;;;;;;;;;4206666;28;1147;-55
2021/12/29 04:56:15;;;;;;;;;;;;;;;;;;4206250;28;1104;-55
2021/12/29 04:58:35;;;;;;;;;;;;;;;;;;4206495;28;1914;-56
2021/12/29 05:00:55;;;;;;;;;;;;;;;;;;4206517;28;961;-56
2021/12/29 05:03:15;;;;;;;;;;;;;;;;;;4206262;28;961;-56
2021/12/29 05:08:29;;;;;;;;;;;;;;;;;;4206447;28;972;-56
2021/12/29 05:10:51;;;;;;;;;;;;;;;;;;4206045;28;1091;-56
2021/12/29 05:13:11;;;;;;;;;;;;;;;;;;4205166;28;1007;-56
2021/12/29 05:15:32;;;;;;;;;;;;;;;;;;4205975;28;1274;-56
2021/12/29 05:17:52;;;;;;;;;;;;;;;;;;4205902;28;1910;-55
2021/12/29 05:20:12;;;;;;;;;;;;;;;;;;4205836;28;951;-56
2021/12/29 05:22:32;;;;;;;;;;;;;;;;;;4205717;28;1020;-56
2021/12/29 05:24:52;;;;;;;;;;;;;;;;;;4205666;28;1185;-55
2021/12/29 05:27:13;;;;;;;;;;;;;;;;;;4205891;28;1147;-56
2021/12/29 05:29:33;;;;;;;;;;;;;;;;;;4205745;28;996;-56
2021/12/29 05:31:53;;;;;;;;;;;;;;;;;;4205655;28;1055;-56
2021/12/29 05:34:13;;;;;;;;;;;;;;;;;;4205588;28;1124;-56
2021/12/29 05:36:33;;;;;;;;;;;;;;;;;;4205642;28;991;-56
2021/12/29 05:38:55;;;;;;;;;;;;;;;;;;4205699;28;1979;-56
2021/12/29 05:41:15;;;;;;;;;;;;;;;;;;4205457;28;947;-57
2021/12/29 05:43:36;;;;;;;;;;;;;;;;;;4205554;28;1198;-56
2021/12/29 05:45:56;;;;;;;;;;;;;;;;;;4205495;28;1104;-56
2021/12/29 05:48:16;;;;;;;;;;;;;;;;;;4205537;28;1297;-56
2021/12/29 05:50:36;;;;;;;;;;;;;;;;;;4205614;28;1085;-55
2021/12/29 05:52:57;;;;;;;;;;;;;;;;;;4205909;28;1008;-56
2021/12/29 05:55:17;;;;;;;;;;;;;;;;;;4205648;28;1152;-56
2021/12/29 05:57:37;;;;;;;;;;;;;;;;;;4205514;28;1957;-56
2021/12/29 05:59:58;;;;;;;;;;;;;;;;;;4205462;28;1004;-56
2021/12/29 06:02:18;;;;;;;;;;;;;;;;;;4205368;28;927;-56
2021/12/29 06:04:38;;;;;;;;;;;;;;;;;;4205327;28;1196;-55
2021/12/29 06:06:58;;;;;;;;;;;;;;;;;;4205110;28;975;-56
2021/12/29 06:09:19;;;;;;;;;;;;;;;;;;4205339;28;976;-56
2021/12/29 06:11:39;;;;;;;;;;;;;;;;;;4205437;28;997;-56
2021/12/29 06:13:59;;;;;;;;;;;;;;;;;;4205340;28;1277;-56
2021/12/29 06:16:20;;;;;;;;;;;;;;;;;;4204853;28;1271;-56
2021/12/29 06:18:40;;;;;;;;;;;;;;;;;;4205067;28;2001;-56
2021/12/29 06:21:00;;;;;;;;;;;;;;;;;;4205003;28;1135;-56
2021/12/29 06:23:20;;;;;;;;;;;;;;;;;;4204941;28;1335;-56
2021/12/29 06:25:41;;;;;;;;;;;;;;;;;;4204872;28;1193;-56
2021/12/29 06:28:01;;;;;;;;;;;;;;;;;;4204991;28;1154;-56
2021/12/29 06:30:21;;;;;;;;;;;;;;;;;;4205087;28;1275;-56
2021/12/29 06:32:41;;;;;;;;;;;;;;;;;;4204910;28;1220;-56
2021/12/29 06:35:01;;;;;;;;;;;;;;;;;;4205079;28;930;-56
2021/12/29 06:37:21;;;;;;;;;;;;;;;;;;4189606;28;1022;-55
2021/12/29 06:39:42;;;;;;;;;;;;;;;;;;4204876;28;980;-57
2021/12/29 06:42:02;;;;;;;;;;;;;;;;;;4204796;28;1131;-56
2021/12/29 06:44:22;;;;;;;;;;;;;;;;;;4204717;28;958;-56
2021/12/29 06:46:42;;;;;;;;;;;;;;;;;;4204873;28;1244;-56
2021/12/29 06:49:02;;;;;;;;;;;;;;;;;;4204784;28;1049;-56
2021/12/29 06:51:23;;;;;;;;;;;;;;;;;;4204806;28;1723;-56
2021/12/29 06:53:44;;;;;;;;;;;;;;;;;;4204775;28;1372;-56
2021/12/29 06:56:05;;;;;;;;;;;;;;;;;;4204787;28;1196;-56
2021/12/29 06:58:26;;;;;;;;;;;;;;;;;;4204756;28;1910;-56
2021/12/29 07:00:46;;;;;;;;;;;;;;;;;;4204468;28;1216;-56
2021/12/29 07:03:06;;;;;;;;;;;;;;;;;;4204479;28;1162;-56
2021/12/29 07:05:27;;;;;;;;;;;;;;;;;;4204606;28;946;-56
2021/12/29 07:07:49;;;;;;;;;;;;;;;;;;4204624;28;1121;-56
2021/12/29 07:10:09;;;;;;;;;;;;;;;;;;4204727;28;1042;-56
2021/12/29 07:12:29;;;;;;;;;;;;;;;;;;4204396;28;966;-56
2021/12/29 07:14:49;;;;;;;;;;;;;;;;;;4204348;28;976;-56
2021/12/29 07:17:09;;;;;;;;;;;;;;;;;;4204375;28;1057;-56
2021/12/29 07:19:29;;;;;;;;;;;;;;;;;;4204415;28;1978;-56
2021/12/29 07:21:50;;;;;;;;;;;;;;;;;;4204462;28;1013;-56
2021/12/29 07:24:10;;;;;;;;;;;;;;;;;;4204607;28;974;-56
2021/12/29 07:26:31;;;;;;;;;;;;;;;;;;4204349;28;1317;-56
2021/12/29 07:28:51;;;;;;;;;;;;;;;;;;4204345;28;959;-56
2021/12/29 07:31:11;;;;;;;;;;;;;;;;;;4204746;28;1035;-56
2021/12/29 07:33:32;;;;;;;;;;;;;;;;;;4204639;28;1200;-56
2021/12/29 07:35:52;;;;;;;;;;;;;;;;;;4204579;28;1006;-56
2021/12/29 07:38:13;;;;;;;;;;;;;;;;;;4206899;28;1901;-56
2021/12/29 07:40:34;;;;;;;;;;;;;;;;;;4207459;28;1075;-56
2021/12/29 07:42:55;;;;;;;;;;;;;;;;;;4207065;28;1013;-56
2021/12/29 07:45:15;;;;;;;;;;;;;;;;;;4207129;28;995;-56
2021/12/29 07:47:35;;;;;;;;;;;;;;;;;;4207287;28;1162;-56
2021/12/29 07:49:55;;;;;;;;;;;;;;;;;;4207114;28;1019;-56
2021/12/29 07:52:15;;;;;;;;;;;;;;;;;;4207049;28;1173;-56
2021/12/29 07:54:35;;;;;;;;;;;;;;;;;;4207200;28;937;-55
2021/12/29 07:56:56;;;;;;;;;;;;;;;;;;4207241;28;904;-56
2021/12/29 07:59:16;;;;;;;;;;;;;;;;;;4206819;28;1985;-56
2021/12/29 08:01:36;;;;;;;;;;;;;;;;;;4206960;28;1008;-56
2021/12/29 08:03:56;;;;;;;;;;;;;;;;;;4206523;28;992;-56
2021/12/29 08:06:17;;;;;;;;;;;;;;;;;;4206737;28;1359;-56
2021/12/29 08:08:37;;;;;;;;;;;;;;;;;;4206227;28;1008;-56
2021/12/29 08:10:57;;;;;;;;;;;;;;;;;;4206700;28;1201;-56
2021/12/29 08:13:17;;;;;;;;;;;;;;;;;;4206586;28;950;-57
2021/12/29 08:15:37;;;;;;;;;;;;;;;;;;4206646;28;1278;-56
2021/12/29 08:17:58;;;;;;;;;;;;;;;;;;4206722;28;1014;-56
2021/12/29 08:20:18;;;;;;;;;;;;;;;;;;4206970;28;935;-55
2021/12/29 08:22:38;;;;;;;;;;;;;;;;;;4206774;28;967;-56
2021/12/29 08:24:59;;;;;;;;;;;;;;;;;;4206690;28;1143;-57
2021/12/29 08:27:19;;;;;;;;;;;;;;;;;;4206563;28;1200;-56
2021/12/29 08:29:41;;;;;;;;;;;;;;;;;;4206720;28;1040;-56
2021/12/29 08:32:01;;;;;;;;;;;;;;;;;;4206599;28;1205;-56
2021/12/29 08:34:22;;;;;;;;;;;;;;;;;;4206363;28;959;-56
2021/12/29 08:36:42;;;;;;;;;;;;;;;;;;4206469;28;1228;-55
2021/12/29 08:39:02;;;;;;;;;;;;;;;;;;4206625;28;1902;-55
2021/12/29 08:41:22;;;;;;;;;;;;;;;;;;4206453;28;1183;-55
2021/12/29 08:43:45;;;;;;;;;;;;;;;;;;4206353;28;930;-56
2021/12/29 08:46:06;;;;;;;;;;;;;;;;;;4206320;28;949;-55
2021/12/29 08:48:26;;;;;;;;;;;;;;;;;;4206070;28;1060;-55
2021/12/29 08:50:46;;;;;;;;;;;;;;;;;;4206175;28;1219;-55
2021/12/29 08:53:06;;;;;;;;;;;;;;;;;;4206285;28;973;-55
2021/12/29 08:55:27;;;;;;;;;;;;;;;;;;4206266;28;1311;-55
2021/12/29 08:57:47;;;;;;;;;;;;;;;;;;4206124;28;911;-55
2021/12/29 09:00:07;;;;;;;;;;;;;;;;;;4206161;28;1996;-55
2021/12/29 09:02:28;;;;;;;;;;;;;;;;;;4206078;28;953;-55
2021/12/29 09:04:48;;;;;;;;;;;;;;;;;;4206395;28;1054;-55
2021/12/29 09:07:08;;;;;;;;;;;;;;;;;;4206207;28;1193;-55
2021/12/29 09:09:29;;;;;;;;;;;;;;;;;;4206341;28;1138;-55
2021/12/29 09:11:49;;;;;;;;;;;;;;;;;;4206345;28;1184;-54
2021/12/29 09:14:10;;;;;;;;;;;;;;;;;;4206113;28;1102;-55
2021/12/29 09:16:30;;;;;;;;;;;;;;;;;;4205837;28;1061;-55
2021/12/29 09:18:50;;;;;;;;;;;;;;;;;;4206075;28;1914;-55
2021/12/29 09:21:14;;;;;;;;;;;;;;;;;;4206252;28;1156;-55
2021/12/29 09:23:35;;;;;;;;;;;;;;;;;;4205830;28;938;-55
2021/12/29 09:25:55;;;;;;;;;;;;;;;;;;4205649;28;986;-54
2021/12/29 09:28:16;;;;;;;;;;;;;;;;;;4205830;28;1190;-55
2021/12/29 09:30:36;;;;;;;;;;;;;;;;;;4206066;28;1014;-55
2021/12/29 09:32:57;;;;;;;;;;;;;;;;;;4205744;28;1139;-55
2021/12/29 09:35:19;;;;;;;;;;;;;;;;;;4205617;28;1178;-55
2021/12/29 09:37:40;;;;;;;;;;;;;;;;;;4205763;28;1082;-55
2021/12/29 09:40:00;;;;;;;;;;;;;;;;;;4205491;28;1910;-54
2021/12/29 09:42:20;;;;;;;;;;;;;;;;;;4205489;28;1037;-54
2021/12/29 09:44:41;;;;;;;;;;;;;;;;;;4205633;28;934;-55
2021/12/29 09:47:01;;;;;;;;;;;;;;;;;;4205587;28;1105;-54
2021/12/29 09:49:22;;;;;;;;;;;;;;;;;;4205548;28;990;-55
2021/12/29 09:51:42;;;;;;;;;;;;;;;;;;4205342;28;1256;-55
2021/12/29 09:54:02;;;;;;;;;;;;;;;;;;4205115;28;941;-55
2021/12/29 09:56:26;;;;;;;;;;;;;;;;;;4205570;28;1286;-54
2021/12/29 09:58:46;;;;;;;;;;;;;;;;;;4205307;28;975;-55
2021/12/29 10:01:06;;;;;;;;;;;;;;;;;;4205032;28;1230;-55
2021/12/29 10:03:27;;;;;;;;;;;;;;;;;;4205256;28;1026;-55
2021/12/29 10:05:47;;;;;;;;;;;;;;;;;;4205264;28;994;-55
2021/12/29 10:08:07;;;;;;;;;;;;;;;;;;4205279;28;1153;-54
2021/12/29 10:10:28;;;;;;;;;;;;;;;;;;4205220;28;1183;-55
2021/12/29 10:12:48;;;;;;;;;;;;;;;;;;4205263;28;1070;-54
2021/12/29 10:15:08;;;;;;;;;;;;;;;;;;4204636;28;1223;-54
2021/12/29 10:17:29;;;;;;;;;;;;;;;;;;4205140;28;1522;-55
2021/12/29 10:19:49;;;;;;;;;;;;;;;;;;4205223;28;1941;-55
2021/12/29 10:22:09;;;;;;;;;;;;;;;;;;4204875;28;1020;-55
2021/12/29 10:24:30;;;;;;;;;;;;;;;;;;4205522;28;949;-54
2021/12/29 10:26:50;;;;;;;;;;;;;;;;;;4205336;28;1140;-55
2021/12/29 10:29:11;;;;;;;;;;;;;;;;;;4205375;28;1297;-55
2021/12/29 10:31:31;;;;;;;;;;;;;;;;;;4205255;28;986;-55
2021/12/29 10:33:52;;;;;;;;;;;;;;;;;;4205222;28;1027;-55
2021/12/29 10:36:12;;;;;;;;;;;;;;;;;;4205157;28;1362;-55
2021/12/29 10:38:32;;;;;;;;;;;;;;;;;;4205063;28;814;-55
2021/12/29 10:40:54;;;;;;;;;;;;;;;;;;4205042;28;1906;-55
2021/12/29 10:43:14;;;;;;;;;;;;;;;;;;4204975;28;1411;-55
2021/12/29 10:45:35;;;;;;;;;;;;;;;;;;4204651;28;1142;-55
2021/12/29 10:47:55;;;;;;;;;;;;;;;;;;4205103;28;1193;-55
2021/12/29 10:50:15;;;;;;;;;;;;;;;;;;4205071;28;1012;-54
2021/12/29 10:52:35;;;;;;;;;;;;;;;;;;4204633;28;986;-55
2021/12/29 10:54:56;;;;;;;;;;;;;;;;;;4204771;28;1174;-55
2021/12/29 10:57:16;;;;;;;;;;;;;;;;;;4204835;28;1058;-54
2021/12/29 10:59:37;;;;;;;;;;;;;;;;;;4204660;28;1985;-54
2021/12/29 11:01:58;;;;;;;;;;;;;;;;;;4204703;28;989;-54
2021/12/29 11:04:18;;;;;;;;;;;;;;;;;;4204837;28;1006;-55
2021/12/29 11:06:38;;;;;;;;;;;;;;;;;;4204652;28;949;-55
2021/12/29 11:08:58;;;;;;;;;;;;;;;;;;4204496;28;1125;-55
2021/12/29 11:11:18;;;;;;;;;;;;;;;;;;4203429;28;1165;-55
2021/12/29 11:13:40;;;;;;;;;;;;;;;;;;4207808;28;1491;-55
2021/12/29 11:16:00;;;;;;;;;;;;;;;;;;4207524;28;1061;-55
2021/12/29 11:18:20;;;;;;;;;;;;;;;;;;4207517;28;1006;-55
2021/12/29 11:20:40;;;;;;;;;;;;;;;;;;4207223;28;1909;-55
2021/12/29 11:23:00;;;;;;;;;;;;;;;;;;4207374;28;1141;-55
2021/12/29 11:25:20;;;;;;;;;;;;;;;;;;4189536;28;979;-55
2021/12/29 11:27:41;;;;;;;;;;;;;;;;;;4207356;28;1122;-55
2021/12/29 11:30:02;;;;;;;;;;;;;;;;;;4207236;28;1498;-54
2021/12/29 11:32:23;;;;;;;;;;;;;;;;;;4207206;28;1104;-54
2021/12/29 11:34:43;;;;;;;;;;;;;;;;;;4207282;28;970;-55
2021/12/29 11:37:03;;;;;;;;;;;;;;;;;;4207396;28;1167;-54
2021/12/29 11:39:23;;;;;;;;;;;;;;;;;;4207187;28;1157;-55
2021/12/29 11:41:43;;;;;;;;;;;;;;;;;;4207357;28;1227;-55
2021/12/29 11:44:04;;;;;;;;;;;;;;;;;;4207227;28;989;-55
2021/12/29 11:46:24;;;;;;;;;;;;;;;;;;4207242;28;1103;-55
2021/12/29 11:48:45;;;;;;;;;;;;;;;;;;4207062;28;966;-55
2021/12/29 11:51:05;;;;;;;;;;;;;;;;;;4207286;28;1078;-55
2021/12/29 11:53:25;;;;;;;;;;;;;;;;;;4207265;28;1144;-55
2021/12/29 11:55:45;;;;;;;;;;;;;;;;;;4207249;28;1010;-54
2021/12/29 11:58:06;;;;;;;;;;;;;;;;;;4207117;28;1008;-55
2021/12/29 12:00:26;;;;;;;;;;;;;;;;;;4206926;28;1909;-55
2021/12/29 12:02:46;;;;;;;;;;;;;;;;;;4207066;28;1245;-54
2021/12/29 12:05:06;;;;;;;;;;;;;;;;;;4207151;28;1108;-55
2021/12/29 12:07:26;;;;;;;;;;;;;;;;;;4206820;28;1017;-54
2021/12/29 12:09:47;;;;;;;;;;;;;;;;;;4206957;28;1057;-55
2021/12/29 12:12:07;;;;;;;;;;;;;;;;;;4206761;28;1016;-55
2021/12/29 12:14:27;;;;;;;;;;;;;;;;;;4206942;28;1029;-54
2021/12/29 12:16:48;;;;;;;;;;;;;;;;;;4206661;28;1322;-54
2021/12/29 12:19:08;;;;;;;;;;;;;;;;;;4206664;28;1012;-54
2021/12/29 12:21:29;;;;;;;;;;;;;;;;;;4206509;28;1906;-55
2021/12/29 12:23:51;;;;;;;;;;;;;;;;;;4206288;28;1001;-54
2021/12/29 12:26:11;;;;;;;;;;;;;;;;;;4206732;28;1169;-55
2021/12/29 12:28:31;;;;;;;;;;;;;;;;;;4206506;28;1053;-54
2021/12/29 12:30:53;;;;;;;;;;;;;;;;;;4206655;28;1012;-54
2021/12/29 12:33:13;;;;;;;;;;;;;;;;;;4206421;28;1041;-55
2021/12/29 12:35:34;;;;;;;;;;;;;;;;;;4206575;28;933;-55
2021/12/29 12:37:54;;;;;;;;;;;;;;;;;;4206571;28;917;-55
2021/12/29 12:40:15;;;;;;;;;;;;;;;;;;4206714;28;1984;-55
2021/12/29 12:42:35;;;;;;;;;;;;;;;;;;4206357;28;975;-55
2021/12/29 12:44:56;;;;;;;;;;;;;;;;;;4206338;28;1019;-56
2021/12/29 12:47:16;;;;;;;;;;;;;;;;;;4206253;28;923;-55
2021/12/29 12:49:36;;;;;;;;;;;;;;;;;;4206498;28;1106;-55
2021/12/29 12:51:57;;;;;;;;;;;;;;;;;;4206487;28;1192;-55
2021/12/29 12:54:17;;;;;;;;;;;;;;;;;;4206217;28;1088;-55
2021/12/29 12:56:37;;;;;;;;;;;;;;;;;;4209971;28;1826;-55
2021/12/29 12:59:00;;;;;;;;;;;;;;;;;;4220782;28;1622;-55
2021/12/29 13:01:23;;;;;;;;;;;;;;;;;;4222701;28;1909;-55
2021/12/29 13:03:43;;;;;;;;;;;;;;;;;;4222968;28;934;-55
2021/12/29 13:06:04;;;;;;;;;;;;;;;;;;4222987;28;1001;-55
2021/12/29 13:08:24;;;;;;;;;;;;;;;;;;4222633;28;1109;-54
2021/12/29 13:10:45;;;;;;;;;;;;;;;;;;4222799;28;1003;-54
2021/12/29 13:13:11;;;;;;;;;;;;;;;;;;4220475;28;2003;-55
2021/12/29 13:15:34;;;;;;;;;;;;;;;;;;4221244;28;2141;-55
2021/12/29 13:17:55;;;;;;;;;;;;;;;;;;4221298;28;982;-55
2021/12/29 13:20:15;;;;;;;;;;;;;;;;;;4204774;28;1905;-54
2021/12/29 13:22:36;;;;;;;;;;;;;;;;;;4204934;28;1273;-54
2021/12/29 13:24:56;;;;;;;;;;;;;;;;;;4204937;28;965;-55
2021/12/29 13:27:20;;;;;;;;;;;;;;;;;;4204659;28;977;-54
2021/12/29 13:29:41;;;;;;;;;;;;;;;;;;4204797;28;999;-55
2021/12/29 13:32:01;;;;;;;;;;;;;;;;;;4216771;28;1622;-56
2021/12/29 13:34:22;;;;;;;;;;;;;;;;;;4220279;28;1206;-55
2021/12/29 13:36:43;;;;;;;;;;;;;;;;;;4221379;28;1043;-55
2021/12/29 13:39:04;;;;;;;;;;;;;;;;;;4221144;28;1090;-55
2021/12/29 13:41:24;;;;;;;;;;;;;;;;;;4220851;28;1910;-53
2021/12/29 13:43:45;;;;;;;;;;;;;;;;;;4220749;28;1068;-54
2021/12/29 13:46:05;;;;;;;;;;;;;;;;;;4220631;28;1089;-55
2021/12/29 13:48:25;;;;;;;;;;;;;;;;;;4220920;28;1108;-55
2021/12/29 13:50:45;;;;;;;;;;;;;;;;;;4220985;28;988;-55
2021/12/29 13:53:06;;;;;;;;;;;;;;;;;;4220949;28;948;-55
2021/12/29 13:55:27;;;;;;;;;;;;;;;;;;4220906;28;1224;-55
2021/12/29 13:57:47;;;;;;;;;;;;;;;;;;4220884;28;1005;-55
2021/12/29 14:00:07;;;;;;;;;;;;;;;;;;4220656;28;962;-55
2021/12/29 14:02:32;;;;;;;;;;;;;;;;;;4220651;28;954;-55
2021/12/29 14:04:53;;;;;;;;;;;;;;;;;;4220772;28;936;-54
2021/12/29 14:07:13;;;;;;;;;;;;;;;;;;4221927;28;1203;-55
2021/12/29 14:09:33;;;;;;;;;;;;;;;;;;4222223;28;1159;-55
2021/12/29 14:11:53;;;;;;;;;;;;;;;;;;4222128;28;1098;-55
2021/12/29 14:14:13;;;;;;;;;;;;;;;;;;4221783;28;1004;-54
2021/12/29 14:16:34;;;;;;;;;;;;;;;;;;4222073;28;1118;-55
2021/12/29 14:18:56;;;;;;;;;;;;;;;;;;4222165;28;1202;-56
2021/12/29 14:21:18;;;;;;;;;;;;;;;;;;4222221;28;1917;-55
2021/12/29 14:23:38;;;;;;;;;;;;;;;;;;4222136;28;973;-55
2021/12/29 14:25:59;;;;;;;;;;;;;;;;;;4221873;28;951;-54
2021/12/29 14:28:19;;;;;;;;;;;;;;;;;;4221859;28;1107;-55
2021/12/29 14:30:42;;;;;;;;;;;;;;;;;;4222027;28;1116;-55
2021/12/29 14:33:03;;;;;;;;;;;;;;;;;;4221915;28;1379;-55
2021/12/29 14:35:23;;;;;;;;;;;;;;;;;;4221888;28;1020;-55
2021/12/29 14:37:43;;;;;;;;;;;;;;;;;;4221886;28;1282;-54
2021/12/29 14:40:03;;;;;;;;;;;;;;;;;;4221748;28;1919;-55
2021/12/29 14:42:25;;;;;;;;;;;;;;;;;;4220586;28;1902;-56
2021/12/29 14:44:45;;;;;;;;;;;;;;;;;;4218853;28;1972;-55
2021/12/29 14:47:06;;;;;;;;;;;;;;;;;;4220729;28;1971;-55
2021/12/29 14:49:26;;;;;;;;;;;;;;;;;;4221145;28;1664;-55
2021/12/29 14:51:46;;;;;;;;;;;;;;;;;;4219567;28;2046;-55
2021/12/29 14:54:07;;;;;;;;;;;;;;;;;;4219446;28;1918;-55
2021/12/29 14:56:28;;;;;;;;;;;;;;;;;;4221346;28;1550;-54
2021/12/29 14:58:48;;;;;;;;;;;;;;;;;;4221087;28;1711;-55
2021/12/29 15:01:09;;;;;;;;;;;;;;;;;;4220872;28;1909;-55
2021/12/29 15:03:29;;;;;;;;;;;;;;;;;;4221105;28;928;-55
2021/12/29 15:05:50;;;;;;;;;;;;;;;;;;4221036;28;1004;-55
2021/12/29 15:08:10;;;;;;;;;;;;;;;;;;4221233;28;985;-54
2021/12/29 15:10:30;;;;;;;;;;;;;;;;;;4221703;28;1227;-55
2021/12/29 15:12:51;;;;;;;;;;;;;;;;;;4221024;28;966;-54
2021/12/29 15:15:11;;;;;;;;;;;;;;;;;;4221434;28;1223;-54
2021/12/29 15:17:31;;;;;;;;;;;;;;;;;;4204865;28;927;-54
2021/12/29 15:19:53;;;;;;;;;;;;;;;;;;4204484;28;1091;-55
2021/12/29 15:22:13;;;;;;;;;;;;;;;;;;4184190;28;1906;-54
2021/12/29 15:24:33;;;;;;;;;;;;;;;;;;4197791;28;1149;-54
2021/12/29 15:26:54;;;;;;;;;;;;;;;;;;4203987;28;997;-54
2021/12/29 15:29:14;;;;;;;;;;;;;;;;;;4203801;28;2139;-55
2021/12/29 15:31:36;;;;;;;;;;;;;;;;;;4204295;28;1986;-54
2021/12/29 15:33:57;;;;;;;;;;;;;;;;;;4202388;28;1555;-54
2021/12/29 15:36:17;;;;;;;;;;;;;;;;;;4203698;28;1339;-55
2021/12/29 15:38:37;;;;;;;;;;;;;;;;;;4201708;28;1497;-54
2021/12/29 15:41:02;;;;;;;;;;;;;;;;;;4203862;28;1575;-54
2021/12/29 15:43:22;;;;;;;;;;;;;;;;;;4203622;28;1791;-55
2021/12/29 15:45:43;;;;;;;;;;;;;;;;;;4203672;28;1944;-54
2021/12/29 15:48:04;;;;;;;;;;;;;;;;;;4201395;28;2005;-54
2021/12/29 15:50:24;;;;;;;;;;;;;;;;;;4203635;28;1439;-54
2021/12/29 15:52:45;;;;;;;;;;;;;;;;;;4200683;28;1735;-54
2021/12/29 15:55:05;;;;;;;;;;;;;;;;;;4201334;28;1804;-54
2021/12/29 15:57:26;;;;;;;;;;;;;;;;;;4203177;28;2168;-54
2021/12/29 15:59:47;;;;;;;;;;;;;;;;;;4203851;28;1885;-54
2021/12/29 16:02:07;;;;;;;;;;;;;;;;;;4206681;28;1980;-54
2021/12/29 16:04:28;;;;;;;;;;;;;;;;;;4206635;28;1579;-54
2021/12/29 16:06:48;;;;;;;;;;;;;;;;;;4191130;28;1415;-55
2021/12/29 16:09:08;;;;;;;;;;;;;;;;;;4202884;28;1466;-54
2021/12/29 16:11:28;;;;;;;;;;;;;;;;;;4202125;28;1649;-54
2021/12/29 16:13:49;;;;;;;;;;;;;;;;;;4203919;28;1731;-54
2021/12/29 16:16:10;;;;;;;;;;;;;;;;;;4211471;28;1944;-54
2021/12/29 16:18:30;;;;;;;;;;;;;;;;;;4221410;28;1379;-54
2021/12/29 16:20:50;;;;;;;;;;;;;;;;;;4223270;28;1005;-55
2021/12/29 16:23:11;;;;;;;;;;;;;;;;;;4222886;28;1898;-54
2021/12/29 16:25:31;;;;;;;;;;;;;;;;;;4223072;28;1721;-54